createdAt,value
2023-02-19T00:01:46.343Z,12.10
2023-02-19T00:04:16.215Z,12.10
2023-02-19T00:06:44.602Z,12.10
2023-02-19T00:09:13.279Z,12.10
2023-02-19T00:11:41.260Z,12.10
2023-02-19T00:14:09.123Z,12.00
2023-02-19T00:16:40.040Z,12.00
2023-02-19T00:19:09.392Z,12.00
2023-02-19T00:21:36.523Z,12.00
2023-02-19T00:24:06.143Z,12.00
2023-02-19T00:26:34.269Z,11.90
2023-02-19T00:29:02.406Z,11.90
2023-02-19T00:31:34.234Z,11.80
2023-02-19T00:34:04.080Z,11.80
2023-02-19T00:36:33.035Z,11.80
2023-02-19T00:39:00.164Z,11.80
2023-02-19T00:41:27.485Z,11.80
2023-02-19T00:43:54.364Z,11.70
2023-02-19T00:46:27.138Z,11.70
2023-02-19T00:48:54.763Z,11.70
2023-02-19T00:51:24.551Z,11.70
2023-02-19T00:53:52.185Z,11.70
2023-02-19T00:56:19.574Z,11.70
2023-02-19T00:58:47.263Z,11.70
2023-02-19T01:01:14.934Z,11.70
2023-02-19T01:03:45.604Z,11.70
2023-02-19T01:06:14.957Z,11.70
2023-02-19T01:08:42.365Z,11.70
2023-02-19T01:11:10.757Z,11.80
2023-02-19T01:13:38.384Z,11.80
2023-02-19T01:16:09.640Z,11.80
2023-02-19T01:18:36.941Z,11.80
2023-02-19T01:21:09.168Z,11.80
2023-02-19T01:23:36.477Z,11.80
2023-02-19T01:26:09.275Z,11.80
2023-02-19T01:28:36.198Z,11.80
2023-02-19T01:31:04.791Z,11.80
2023-02-19T01:33:32.538Z,11.80
2023-02-19T01:35:59.740Z,11.80
2023-02-19T01:38:26.753Z,11.80
2023-02-19T01:41:14.836Z,11.80
2023-02-19T01:44:03.828Z,11.80
2023-02-19T01:46:35.616Z,11.80
2023-02-19T01:49:40.335Z,11.90
2023-02-19T01:52:17.289Z,11.80
2023-02-19T01:54:46.840Z,11.90
2023-02-19T01:57:24.152Z,11.80
2023-02-19T01:59:57.748Z,11.80
2023-02-19T02:02:27.392Z,11.80
2023-02-19T02:04:56.242Z,11.80
2023-02-19T02:07:41.702Z,11.80
2023-02-19T02:10:20.752Z,11.80
2023-02-19T02:12:56.337Z,11.80
2023-02-19T02:15:26.784Z,11.80
2023-02-19T02:18:36.446Z,11.80
2023-02-19T02:21:40.977Z,11.70
2023-02-19T02:24:35.089Z,11.70
2023-02-19T02:27:49.233Z,11.70
2023-02-19T02:31:04.579Z,11.70
2023-02-19T02:33:36.273Z,11.70
2023-02-19T02:36:16.745Z,11.70
2023-02-19T02:38:46.952Z,11.60
2023-02-19T02:41:15.732Z,11.60
2023-02-19T02:43:42.931Z,11.60
2023-02-19T02:46:16.021Z,11.60
2023-02-19T02:48:49.513Z,11.60
2023-02-19T02:51:29.079Z,11.60
2023-02-19T02:54:41.369Z,11.50
2023-02-19T02:57:14.872Z,11.60
2023-02-19T02:59:52.276Z,11.60
2023-02-19T03:02:25.207Z,11.60
2023-02-19T03:05:32.036Z,11.60
2023-02-19T03:08:09.852Z,11.60
2023-02-19T03:10:55.325Z,11.60
2023-02-19T03:13:55.530Z,11.60
2023-02-19T03:16:51.683Z,11.50
2023-02-19T03:19:20.529Z,11.50
2023-02-19T03:21:59.114Z,11.50
2023-02-19T03:24:53.558Z,11.40
2023-02-19T03:27:21.961Z,11.40
2023-02-19T03:29:56.361Z,11.50
2023-02-19T03:32:40.082Z,11.40
2023-02-19T03:35:13.502Z,11.40
2023-02-19T03:37:57.667Z,11.50
2023-02-19T03:40:29.537Z,11.50
2023-02-19T03:43:14.257Z,11.50
2023-02-19T03:45:48.728Z,11.50
2023-02-19T03:48:34.957Z,11.50
2023-02-19T03:51:15.281Z,11.50
2023-02-19T03:53:48.712Z,11.60
2023-02-19T03:56:36.952Z,11.60
2023-02-19T03:59:13.460Z,11.60
2023-02-19T04:01:47.698Z,11.60
2023-02-19T04:04:29.233Z,11.60
2023-02-19T04:06:57.558Z,11.60
2023-02-19T04:09:34.804Z,11.60
2023-02-19T04:12:08.146Z,11.60
2023-02-19T04:14:40.974Z,11.50
2023-02-19T04:17:17.449Z,11.50
2023-02-19T04:19:47.605Z,11.50
2023-02-19T04:22:17.205Z,11.50
2023-02-19T04:24:49.244Z,11.50
2023-02-19T04:27:17.054Z,11.50
2023-02-19T04:29:44.092Z,11.40
2023-02-19T04:32:12.307Z,11.40
2023-02-19T04:34:39.599Z,11.30
2023-02-19T04:37:07.064Z,11.30
2023-02-19T04:39:34.297Z,11.30
2023-02-19T04:42:01.217Z,11.30
2023-02-19T04:44:28.165Z,11.30
2023-02-19T04:46:55.307Z,11.20
2023-02-19T04:49:22.325Z,11.20
2023-02-19T04:51:49.238Z,11.30
2023-02-19T04:54:16.382Z,11.20
2023-02-19T04:56:43.324Z,11.20
2023-02-19T04:59:10.377Z,11.20
2023-02-19T05:01:37.378Z,11.20
2023-02-19T05:04:05.274Z,11.20
2023-02-19T05:06:32.202Z,11.10
2023-02-19T05:08:59.154Z,11.10
2023-02-19T05:11:26.239Z,11.10
2023-02-19T05:13:53.098Z,11.10
2023-02-19T05:16:20.035Z,11.10
2023-02-19T05:18:47.561Z,11.10
2023-02-19T05:21:15.348Z,11.00
2023-02-19T05:23:43.256Z,11.00
2023-02-19T05:26:15.409Z,11.00
2023-02-19T05:28:42.516Z,11.00
2023-02-19T05:31:11.917Z,11.00
2023-02-19T05:33:39.813Z,11.00
2023-02-19T05:36:09.495Z,11.00
2023-02-19T05:38:37.155Z,11.00
2023-02-19T05:41:14.994Z,11.00
2023-02-19T05:43:43.572Z,11.00
2023-02-19T05:46:12.608Z,11.00
2023-02-19T05:48:40.280Z,11.00
2023-02-19T05:51:09.963Z,11.00
2023-02-19T05:53:37.789Z,10.90
2023-02-19T05:56:05.320Z,10.90
2023-02-19T05:58:32.258Z,10.90
2023-02-19T06:00:59.140Z,10.90
2023-02-19T06:03:27.182Z,10.90
2023-02-19T06:05:54.154Z,10.90
2023-02-19T06:08:21.054Z,10.90
2023-02-19T06:10:48.168Z,10.90
2023-02-19T06:13:16.849Z,10.90
2023-02-19T06:15:44.599Z,10.90
2023-02-19T06:18:11.586Z,10.90
2023-02-19T06:20:38.450Z,10.90
2023-02-19T06:23:05.364Z,10.90
2023-02-19T06:25:32.335Z,10.90
2023-02-19T06:27:59.288Z,10.90
2023-02-19T06:30:26.281Z,10.90
2023-02-19T06:32:54.113Z,10.90
2023-02-19T06:35:20.959Z,10.90
2023-02-19T06:37:49.103Z,10.90
2023-02-19T06:40:16.718Z,10.90
2023-02-19T06:42:43.714Z,10.90
2023-02-19T06:45:10.921Z,10.90
2023-02-19T06:47:38.005Z,10.90
2023-02-19T06:50:05.495Z,10.90
2023-02-19T06:52:32.391Z,10.90
2023-02-19T06:54:59.269Z,10.90
2023-02-19T06:57:26.168Z,10.90
2023-02-19T06:59:53.118Z,10.90
2023-02-19T07:02:20.139Z,10.80
2023-02-19T07:04:47.027Z,10.80
2023-02-19T07:07:14.097Z,10.90
2023-02-19T07:09:40.962Z,10.90
2023-02-19T07:12:07.955Z,10.90
2023-02-19T07:14:34.801Z,10.90
2023-02-19T07:17:01.752Z,10.90
2023-02-19T07:19:28.658Z,10.90
2023-02-19T07:21:55.599Z,10.90
2023-02-19T07:24:22.719Z,10.90
2023-02-19T07:26:49.667Z,11.00
2023-02-19T07:29:16.630Z,11.00
2023-02-19T07:31:43.980Z,11.00
2023-02-19T07:34:11.016Z,11.00
2023-02-19T07:36:37.995Z,11.00
2023-02-19T07:39:05.277Z,11.00
2023-02-19T07:41:32.236Z,11.00
2023-02-19T07:43:59.164Z,11.00
2023-02-19T07:46:26.361Z,11.00
2023-02-19T07:48:53.190Z,11.00
2023-02-19T07:51:20.673Z,11.00
2023-02-19T07:53:50.297Z,11.10
2023-02-19T07:56:17.663Z,11.10
2023-02-19T07:58:48.397Z,11.20
2023-02-19T08:01:41.104Z,11.10
2023-02-19T08:04:08.324Z,11.20
2023-02-19T08:06:35.321Z,11.20
2023-02-19T08:09:02.390Z,11.30
2023-02-19T08:11:47.767Z,11.30
2023-02-19T08:14:14.738Z,11.40
2023-02-19T08:16:49.559Z,11.50
2023-02-19T08:19:16.578Z,11.60
2023-02-19T08:21:43.525Z,11.70
2023-02-19T08:24:10.678Z,11.70
2023-02-19T08:26:37.769Z,11.80
2023-02-19T08:29:06.086Z,11.90
2023-02-19T08:31:34.328Z,11.90
2023-02-19T08:34:01.518Z,12.00
2023-02-19T08:36:28.510Z,12.10
2023-02-19T08:38:55.427Z,12.10
2023-02-19T08:41:22.428Z,12.10
2023-02-19T08:43:49.602Z,12.20
2023-02-19T08:46:16.953Z,12.20
2023-02-19T08:48:43.845Z,12.20
2023-02-19T08:51:12.313Z,12.20
2023-02-19T08:53:41.103Z,12.20
2023-02-19T08:56:09.979Z,12.20
2023-02-19T08:58:37.544Z,12.30
2023-02-19T09:01:12.702Z,12.30
2023-02-19T09:03:40.285Z,12.30
2023-02-19T09:06:07.883Z,12.40
2023-02-19T09:08:34.876Z,12.50
2023-02-19T09:11:04.617Z,12.50
2023-02-19T09:13:31.827Z,12.50
2023-02-19T09:15:58.904Z,12.40
2023-02-19T09:18:26.222Z,12.40
2023-02-19T09:20:53.223Z,12.40
2023-02-19T09:23:20.242Z,12.40
2023-02-19T09:25:47.243Z,12.40
2023-02-19T09:28:14.309Z,12.40
2023-02-19T09:30:43.320Z,12.40
2023-02-19T09:33:10.299Z,12.50
2023-02-19T09:35:42.081Z,12.50
2023-02-19T09:38:10.975Z,12.60
2023-02-19T09:40:39.272Z,12.60
2023-02-19T09:43:16.959Z,12.50
2023-02-19T09:45:44.319Z,12.30
2023-02-19T09:48:12.640Z,12.30
2023-02-19T09:50:44.785Z,12.20
2023-02-19T09:53:24.953Z,12.10
2023-02-19T09:55:53.440Z,12.10
2023-02-19T09:58:28.228Z,12.10
2023-02-19T10:00:57.867Z,12.00
2023-02-19T10:03:33.697Z,12.10
2023-02-19T10:06:14.444Z,12.10
2023-02-19T10:08:42.759Z,12.20
2023-02-19T10:11:12.384Z,12.30
2023-02-19T10:14:13.769Z,12.30
2023-02-19T10:16:43.872Z,12.40
2023-02-19T10:19:15.738Z,12.30
2023-02-19T10:21:43.569Z,12.30
2023-02-19T10:24:20.107Z,12.30
2023-02-19T10:26:47.620Z,12.30
2023-02-19T10:29:14.755Z,12.40
2023-02-19T10:31:41.864Z,12.40
2023-02-19T10:34:22.299Z,12.40
2023-02-19T10:36:52.084Z,12.50
2023-02-19T10:39:22.086Z,12.50
2023-02-19T10:41:50.752Z,12.50
2023-02-19T10:44:23.696Z,12.60
2023-02-19T10:46:52.546Z,12.70
2023-02-19T10:49:34.146Z,12.90
2023-02-19T10:52:17.992Z,13.30
2023-02-19T10:54:46.547Z,13.60
2023-02-19T10:57:19.515Z,13.90
2023-02-19T11:00:15.919Z,14.10
2023-02-19T11:02:44.835Z,14.30
2023-02-19T11:05:18.098Z,14.40
2023-02-19T11:07:55.940Z,14.60
2023-02-19T11:10:40.627Z,14.70
2023-02-19T11:13:14.175Z,14.60
2023-02-19T11:15:43.070Z,14.50
2023-02-19T11:18:13.123Z,14.30
2023-02-19T11:20:54.621Z,14.20
2023-02-19T11:23:35.297Z,14.10
2023-02-19T11:26:07.653Z,13.90
2023-02-19T11:28:40.485Z,13.80
2023-02-19T11:31:16.135Z,13.70
2023-02-19T11:33:48.890Z,13.70
2023-02-19T11:36:21.497Z,13.60
2023-02-19T11:38:48.614Z,13.60
2023-02-19T11:41:18.635Z,13.50
2023-02-19T11:44:06.798Z,13.40
2023-02-19T11:47:09.629Z,13.40
2023-02-19T11:49:54.709Z,13.40
2023-02-19T11:52:30.853Z,13.40
2023-02-19T11:55:14.056Z,13.50
2023-02-19T11:57:56.357Z,13.50
2023-02-19T12:00:41.825Z,13.60
2023-02-19T12:03:38.602Z,13.70
2023-02-19T12:06:31.109Z,13.90
2023-02-19T12:09:22.313Z,13.90
2023-02-19T12:12:17.533Z,13.80
2023-02-19T12:15:00.777Z,13.80
2023-02-19T12:17:43.067Z,13.90
2023-02-19T12:20:26.792Z,14.10
2023-02-19T12:23:23.988Z,14.10
2023-02-19T12:26:24.446Z,14.10
2023-02-19T12:29:29.168Z,14.10
2023-02-19T12:32:21.341Z,14.00
2023-02-19T12:35:06.985Z,14.00
2023-02-19T12:37:58.700Z,14.10
2023-02-19T12:40:49.337Z,14.20
2023-02-19T12:43:24.283Z,14.20
2023-02-19T12:45:58.119Z,14.30
2023-02-19T12:48:40.196Z,14.40
2023-02-19T12:51:19.730Z,14.50
2023-02-19T12:53:52.560Z,14.60
2023-02-19T12:56:23.474Z,14.70
2023-02-19T12:58:55.946Z,14.60
2023-02-19T13:01:28.589Z,14.60
2023-02-19T13:04:16.667Z,14.70
2023-02-19T13:06:52.502Z,14.60
2023-02-19T13:09:44.618Z,14.70
2023-02-19T13:12:21.591Z,14.70
2023-02-19T13:14:57.144Z,14.70
2023-02-19T13:17:43.948Z,14.60
2023-02-19T13:20:20.128Z,14.60
2023-02-19T13:23:30.433Z,14.50
2023-02-19T13:26:19.606Z,14.40
2023-02-19T13:29:17.444Z,14.30
2023-02-19T13:32:18.674Z,14.30
2023-02-19T13:35:11.617Z,14.40
2023-02-19T13:37:38.977Z,14.50
2023-02-19T13:40:35.593Z,14.50
2023-02-19T13:43:05.666Z,14.70
2023-02-19T13:45:38.588Z,14.70
2023-02-19T13:48:24.211Z,14.60
2023-02-19T13:51:17.335Z,14.70
2023-02-19T13:53:48.136Z,14.70
2023-02-19T13:56:30.438Z,14.80
2023-02-19T13:59:15.566Z,14.80
2023-02-19T14:01:51.852Z,14.80
2023-02-19T14:04:39.419Z,14.80
2023-02-19T14:07:06.300Z,14.70
2023-02-19T14:09:36.612Z,14.70
2023-02-19T14:12:10.359Z,14.70
2023-02-19T14:14:51.768Z,14.70
2023-02-19T14:17:37.664Z,14.60
2023-02-19T14:20:16.705Z,14.50
2023-02-19T14:22:53.160Z,14.30
2023-02-19T14:25:43.690Z,14.20
2023-02-19T14:28:10.806Z,14.10
2023-02-19T14:31:19.926Z,14.00
2023-02-19T14:34:04.083Z,13.90
2023-02-19T14:36:40.668Z,13.80
2023-02-19T14:39:17.856Z,13.70
2023-02-19T14:41:51.938Z,13.70
2023-02-19T14:44:32.564Z,13.60
2023-02-19T14:47:05.237Z,13.60
2023-02-19T14:49:42.670Z,13.60
2023-02-19T14:52:22.139Z,13.50
2023-02-19T14:54:56.625Z,13.50
2023-02-19T14:57:31.036Z,13.40
2023-02-19T15:00:00.703Z,13.30
2023-02-19T15:02:29.727Z,13.20
2023-02-19T15:04:57.579Z,13.10
2023-02-19T15:07:34.001Z,13.10
2023-02-19T15:10:05.756Z,13.00
2023-02-19T15:12:45.752Z,13.00
2023-02-19T15:15:30.642Z,13.00
2023-02-19T15:17:59.713Z,13.00
2023-02-19T15:20:30.984Z,13.10
2023-02-19T15:22:59.979Z,13.10
2023-02-19T15:25:34.500Z,13.10
2023-02-19T15:28:24.317Z,13.20
2023-02-19T15:31:07.455Z,13.20
2023-02-19T15:33:34.920Z,13.20
2023-02-19T15:36:07.817Z,13.20
2023-02-19T15:38:35.275Z,13.20
2023-02-19T15:41:02.778Z,13.20
2023-02-19T15:43:50.776Z,13.20
2023-02-19T15:46:25.563Z,13.10
2023-02-19T15:49:17.425Z,13.10
2023-02-19T15:51:52.503Z,13.10
2023-02-19T15:54:28.519Z,13.10
2023-02-19T15:57:06.536Z,13.00
2023-02-19T15:59:33.433Z,13.00
2023-02-19T16:02:01.700Z,13.00
2023-02-19T16:04:28.763Z,13.00
2023-02-19T16:07:59.094Z,12.90
2023-02-19T16:10:26.154Z,12.90
2023-02-19T16:13:01.828Z,12.90
2023-02-19T16:15:30.657Z,12.90
2023-02-19T16:17:59.546Z,12.80
2023-02-19T16:20:33.615Z,12.80
2023-02-19T16:23:11.452Z,12.70
2023-02-19T16:25:42.152Z,12.70
2023-02-19T16:28:18.084Z,12.70
2023-02-19T16:30:45.185Z,12.60
2023-02-19T16:33:21.930Z,12.60
2023-02-19T16:35:49.813Z,12.60
2023-02-19T16:38:17.735Z,12.60
2023-02-19T16:40:51.081Z,12.60
2023-02-19T16:43:26.112Z,12.60
2023-02-19T16:45:53.496Z,12.60
2023-02-19T16:48:23.063Z,12.50
2023-02-19T16:50:50.572Z,12.60
2023-02-19T16:53:20.385Z,12.50
2023-02-19T16:55:48.169Z,12.50
2023-02-19T16:58:15.276Z,12.50
2023-02-19T17:00:42.341Z,12.50
2023-02-19T17:03:15.739Z,12.40
2023-02-19T17:05:42.984Z,12.40
2023-02-19T17:08:35.613Z,12.40
2023-02-19T17:11:04.871Z,12.40
2023-02-19T17:13:32.254Z,12.30
2023-02-19T17:15:59.342Z,12.30
2023-02-19T17:18:28.738Z,12.30
2023-02-19T17:21:23.953Z,12.20
2023-02-19T17:23:51.752Z,12.20
2023-02-19T17:26:23.056Z,12.20
2023-02-19T17:28:50.733Z,12.20
2023-02-19T17:31:18.072Z,12.20
2023-02-19T17:33:45.403Z,12.10
2023-02-19T17:36:26.658Z,12.10
2023-02-19T17:38:54.437Z,12.10
2023-02-19T17:41:21.481Z,12.00
2023-02-19T17:43:50.420Z,12.00
2023-02-19T17:46:23.619Z,12.00
2023-02-19T17:48:50.932Z,12.00
2023-02-19T17:51:18.034Z,12.00
2023-02-19T17:53:46.802Z,12.00
2023-02-19T17:56:32.000Z,11.90
2023-02-19T17:58:59.901Z,11.90
2023-02-19T18:01:27.012Z,11.90
2023-02-19T18:03:53.951Z,11.90
2023-02-19T18:06:21.013Z,11.90
2023-02-19T18:08:49.999Z,11.80
2023-02-19T18:11:17.652Z,11.80
2023-02-19T18:13:44.809Z,11.80
2023-02-19T18:16:12.491Z,11.80
2023-02-19T18:18:41.075Z,11.70
2023-02-19T18:21:09.901Z,11.70
2023-02-19T18:23:37.730Z,11.80
2023-02-19T18:26:08.683Z,11.70
2023-02-19T18:28:35.756Z,11.70
2023-02-19T18:31:06.244Z,11.70
2023-02-19T18:33:34.379Z,11.70
2023-02-19T18:36:01.488Z,11.70
2023-02-19T18:38:28.461Z,11.70
2023-02-19T18:40:57.801Z,11.70
2023-02-19T18:43:26.028Z,11.60
2023-02-19T18:45:54.235Z,11.60
2023-02-19T18:48:21.219Z,11.60
2023-02-19T18:50:48.443Z,11.60
2023-02-19T18:53:15.610Z,11.60
2023-02-19T18:55:42.655Z,11.60
2023-02-19T18:58:09.772Z,11.50
2023-02-19T19:00:36.964Z,11.50
2023-02-19T19:03:04.118Z,11.50
2023-02-19T19:05:31.170Z,11.50
2023-02-19T19:07:59.683Z,11.40
2023-02-19T19:10:27.032Z,11.50
2023-02-19T19:12:57.765Z,11.40
2023-02-19T19:15:24.945Z,11.40
2023-02-19T19:17:52.215Z,11.40
2023-02-19T19:20:20.910Z,11.40
2023-02-19T19:22:52.767Z,11.40
2023-02-19T19:25:21.118Z,11.40
2023-02-19T19:27:50.684Z,11.40
2023-02-19T19:30:20.418Z,11.40
2023-02-19T19:32:52.458Z,11.40
2023-02-19T19:35:21.370Z,11.30
2023-02-19T19:37:48.720Z,11.40
2023-02-19T19:40:18.253Z,11.30
2023-02-19T19:42:45.298Z,11.40
2023-02-19T19:45:13.832Z,11.30
2023-02-19T19:47:40.944Z,11.30
2023-02-19T19:50:08.382Z,11.30
2023-02-19T19:52:35.559Z,11.30
2023-02-19T19:55:03.869Z,11.30
2023-02-19T19:57:31.230Z,11.30
2023-02-19T19:59:58.502Z,11.30
2023-02-19T20:02:25.566Z,11.30
2023-02-19T20:04:52.672Z,11.40
2023-02-19T20:07:19.749Z,11.30
2023-02-19T20:09:48.273Z,11.40
2023-02-19T20:12:16.111Z,11.40
2023-02-19T20:14:46.778Z,11.40
2023-02-19T20:17:16.755Z,11.30
2023-02-19T20:19:45.950Z,11.30
2023-02-19T20:22:15.407Z,11.40
2023-02-19T20:24:42.571Z,11.40
2023-02-19T20:27:10.211Z,11.30
2023-02-19T20:29:37.690Z,11.40
2023-02-19T20:32:05.044Z,11.40
2023-02-19T20:34:32.333Z,11.40
2023-02-19T20:36:59.404Z,11.40
2023-02-19T20:39:29.456Z,11.40
2023-02-19T20:41:57.786Z,11.30
2023-02-19T20:44:29.421Z,11.30
2023-02-19T20:46:57.892Z,11.30
2023-02-19T20:49:27.797Z,11.30
2023-02-19T20:52:01.123Z,11.40
2023-02-19T20:54:32.445Z,11.40
2023-02-19T20:57:02.646Z,11.30
2023-02-19T20:59:34.897Z,11.30
2023-02-19T21:02:08.861Z,11.30
2023-02-19T21:04:38.579Z,11.30
2023-02-19T21:07:05.548Z,11.30
2023-02-19T21:09:32.544Z,11.30
2023-02-19T21:12:00.075Z,11.30
2023-02-19T21:14:27.174Z,11.30
2023-02-19T21:16:54.290Z,11.30
2023-02-19T21:19:21.855Z,11.20
2023-02-19T21:21:49.182Z,11.30
2023-02-19T21:24:16.233Z,11.30
2023-02-19T21:26:45.352Z,11.30
2023-02-19T21:29:19.031Z,11.30
2023-02-19T21:31:51.426Z,11.20
2023-02-19T21:34:22.423Z,11.20
2023-02-19T21:36:49.412Z,11.20
2023-02-19T21:39:20.254Z,11.20
2023-02-19T21:41:47.996Z,11.20
2023-02-19T21:44:15.414Z,11.20
2023-02-19T21:46:42.773Z,11.20
2023-02-19T21:49:10.503Z,11.20
2023-02-19T21:51:43.022Z,11.20
2023-02-19T21:54:16.190Z,11.20
2023-02-19T21:56:43.408Z,11.20
2023-02-19T21:59:10.722Z,11.20
2023-02-19T22:01:39.046Z,11.10
2023-02-19T22:04:07.501Z,11.10
2023-02-19T22:06:34.950Z,11.10
2023-02-19T22:09:02.118Z,11.10
2023-02-19T22:11:29.291Z,11.10
2023-02-19T22:13:57.570Z,11.00
2023-02-19T22:16:26.339Z,11.00
2023-02-19T22:18:59.528Z,11.00
2023-02-19T22:21:29.213Z,10.90
2023-02-19T22:23:56.209Z,10.90
2023-02-19T22:26:27.148Z,10.90
2023-02-19T22:28:55.020Z,10.80
2023-02-19T22:31:24.437Z,10.80
2023-02-19T22:33:51.818Z,10.70
2023-02-19T22:36:22.701Z,10.70
2023-02-19T22:38:50.470Z,10.60
2023-02-19T22:41:18.976Z,10.50
2023-02-19T22:43:46.462Z,10.50
2023-02-19T22:46:22.226Z,10.40
2023-02-19T22:48:50.548Z,10.30
2023-02-19T22:51:19.980Z,10.20
2023-02-19T22:53:49.277Z,10.20
2023-02-19T22:56:17.742Z,10.10
2023-02-19T22:58:45.733Z,10.00
2023-02-19T23:01:14.077Z,9.90
2023-02-19T23:03:54.435Z,9.90
2023-02-19T23:06:33.136Z,9.80
2023-02-19T23:09:04.996Z,9.70
2023-02-19T23:11:36.603Z,9.70
2023-02-19T23:14:03.957Z,9.70
2023-02-19T23:16:35.780Z,9.60
2023-02-19T23:19:04.970Z,9.60
2023-02-19T23:21:32.849Z,9.60
2023-02-19T23:24:00.296Z,9.60
2023-02-19T23:26:27.576Z,9.60
2023-02-19T23:28:54.527Z,9.60
2023-02-19T23:31:21.833Z,9.60
2023-02-19T23:33:48.828Z,9.50
2023-02-19T23:36:16.098Z,9.60
2023-02-19T23:38:46.964Z,9.60
2023-02-19T23:41:16.811Z,9.60
2023-02-19T23:43:44.292Z,9.60
2023-02-19T23:46:17.397Z,9.60
2023-02-19T23:48:46.091Z,9.60
2023-02-19T23:51:13.564Z,9.50
2023-02-19T23:53:40.721Z,9.50
2023-02-19T23:56:08.302Z,9.50
2023-02-19T23:58:35.572Z,9.50
